sensor_id;sensor_type;location;lat;lon;timestamp;P1;durP1;ratioP1;P2;durP2;ratioP2
4365;SDS011;2196;47.422;9.656;2023-04-03T00:13:29;1.27;;;0.57;;
4365;SDS011;2196;47.422;9.656;2023-04-03T00:15:57;0.10;;;0.10;;
4365;SDS011;2196;47.422;9.656;2023-04-03T00:18:24;0.20;;;0.20;;
4365;SDS011;2196;47.422;9.656;2023-04-03T00:24:12;0.20;;;0.20;;
4365;SDS011;2196;47.422;9.656;2023-04-03T00:26:41;0.40;;;0.40;;
4365;SDS011;2196;47.422;9.656;2023-04-03T00:29:07;0.40;;;0.33;;
4365;SDS011;2196;47.422;9.656;2023-04-03T00:31:34;0.30;;;0.30;;
4365;SDS011;2196;47.422;9.656;2023-04-03T00:34:01;0.30;;;0.30;;
4365;SDS011;2196;47.422;9.656;2023-04-03T00:36:28;0.50;;;0.50;;
4365;SDS011;2196;47.422;9.656;2023-04-03T00:38:55;0.63;;;0.63;;
4365;SDS011;2196;47.422;9.656;2023-04-03T00:41:22;0.30;;;0.30;;
4365;SDS011;2196;47.422;9.656;2023-04-03T00:43:51;1.00;;;0.50;;
4365;SDS011;2196;47.422;9.656;2023-04-03T00:46:18;0.77;;;0.77;;
4365;SDS011;2196;47.422;9.656;2023-04-03T00:48:46;0.90;;;0.90;;
4365;SDS011;2196;47.422;9.656;2023-04-03T00:51:16;0.30;;;0.30;;
4365;SDS011;2196;47.422;9.656;2023-04-03T00:53:46;0.20;;;0.20;;
4365;SDS011;2196;47.422;9.656;2023-04-03T00:56:15;0.30;;;0.30;;
4365;SDS011;2196;47.422;9.656;2023-04-03T00:58:44;0.50;;;0.50;;
4365;SDS011;2196;47.422;9.656;2023-04-03T01:01:18;0.30;;;0.30;;
4365;SDS011;2196;47.422;9.656;2023-04-03T01:03:48;0.43;;;0.43;;
4365;SDS011;2196;47.422;9.656;2023-04-03T01:06:15;0.70;;;0.70;;
4365;SDS011;2196;47.422;9.656;2023-04-03T01:08:44;0.40;;;0.40;;
4365;SDS011;2196;47.422;9.656;2023-04-03T01:11:13;1.43;;;1.43;;
4365;SDS011;2196;47.422;9.656;2023-04-03T01:13:40;0.47;;;0.47;;
4365;SDS011;2196;47.422;9.656;2023-04-03T01:16:07;0.53;;;0.50;;
4365;SDS011;2196;47.422;9.656;2023-04-03T01:18:36;1.07;;;1.07;;
4365;SDS011;2196;47.422;9.656;2023-04-03T01:21:11;0.60;;;0.60;;
4365;SDS011;2196;47.422;9.656;2023-04-03T01:24:06;0.63;;;0.63;;
4365;SDS011;2196;47.422;9.656;2023-04-03T01:26:39;0.73;;;0.73;;
4365;SDS011;2196;47.422;9.656;2023-04-03T01:29:06;3.47;;;3.27;;
4365;SDS011;2196;47.422;9.656;2023-04-03T03:46:18;6.23;;;5.63;;
4365;SDS011;2196;47.422;9.656;2023-04-03T03:48:45;5.13;;;4.67;;
4365;SDS011;2196;47.422;9.656;2023-04-03T03:51:12;6.07;;;5.47;;
4365;SDS011;2196;47.422;9.656;2023-04-03T03:53:39;6.93;;;6.33;;
4365;SDS011;2196;47.422;9.656;2023-04-03T03:56:06;8.73;;;6.27;;
4365;SDS011;2196;47.422;9.656;2023-04-03T03:58:33;7.80;;;5.37;;
4365;SDS011;2196;47.422;9.656;2023-04-03T04:01:00;7.00;;;5.93;;
4365;SDS011;2196;47.422;9.656;2023-04-03T04:03:29;8.63;;;6.60;;
4365;SDS011;2196;47.422;9.656;2023-04-03T12:39:54;4.57;;;2.30;;
4365;SDS011;2196;47.422;9.656;2023-04-03T12:42:42;6.67;;;1.73;;
4365;SDS011;2196;47.422;9.656;2023-04-03T12:45:40;2.33;;;1.40;;
4365;SDS011;2196;47.422;9.656;2023-04-03T12:48:12;1.30;;;1.20;;
4365;SDS011;2196;47.422;9.656;2023-04-03T12:50:43;2.10;;;2.00;;
4365;SDS011;2196;47.422;9.656;2023-04-03T12:53:12;2.20;;;2.10;;
4365;SDS011;2196;47.422;9.656;2023-04-03T12:55:44;2.93;;;2.83;;
4365;SDS011;2196;47.422;9.656;2023-04-03T12:58:15;2.43;;;2.27;;
4365;SDS011;2196;47.422;9.656;2023-04-03T13:00:43;4.13;;;3.73;;
4365;SDS011;2196;47.422;9.656;2023-04-03T13:03:19;3.03;;;2.60;;
4365;SDS011;2196;47.422;9.656;2023-04-03T13:05:58;2.23;;;2.13;;
4365;SDS011;2196;47.422;9.656;2023-04-03T13:08:28;3.63;;;2.07;;
4365;SDS011;2196;47.422;9.656;2023-04-03T13:10:58;1.40;;;1.27;;
4365;SDS011;2196;47.422;9.656;2023-04-03T13:13:27;1.90;;;1.30;;
4365;SDS011;2196;47.422;9.656;2023-04-03T13:15:55;2.47;;;1.73;;
4365;SDS011;2196;47.422;9.656;2023-04-03T13:18:24;1.53;;;1.43;;
4365;SDS011;2196;47.422;9.656;2023-04-03T13:20:58;2.07;;;1.97;;
4365;SDS011;2196;47.422;9.656;2023-04-03T13:23:29;1.33;;;1.20;;
4365;SDS011;2196;47.422;9.656;2023-04-03T13:25:59;1.70;;;1.60;;
4365;SDS011;2196;47.422;9.656;2023-04-03T13:28:28;2.00;;;1.90;;
4365;SDS011;2196;47.422;9.656;2023-04-03T13:30:59;2.00;;;1.47;;
4365;SDS011;2196;47.422;9.656;2023-04-03T13:33:31;1.57;;;1.47;;
4365;SDS011;2196;47.422;9.656;2023-04-03T13:36:03;1.63;;;1.53;;
4365;SDS011;2196;47.422;9.656;2023-04-03T13:38:32;1.87;;;1.77;;
4365;SDS011;2196;47.422;9.656;2023-04-03T13:41:03;2.07;;;1.90;;
4365;SDS011;2196;47.422;9.656;2023-04-03T13:43:33;2.13;;;2.03;;
4365;SDS011;2196;47.422;9.656;2023-04-03T13:46:03;2.13;;;2.03;;
4365;SDS011;2196;47.422;9.656;2023-04-03T13:48:36;1.90;;;1.73;;
4365;SDS011;2196;47.422;9.656;2023-04-03T13:51:06;3.43;;;3.27;;
4365;SDS011;2196;47.422;9.656;2023-04-03T13:53:44;5.13;;;1.60;;
4365;SDS011;2196;47.422;9.656;2023-04-03T13:56:18;4.27;;;3.57;;
4365;SDS011;2196;47.422;9.656;2023-04-03T13:59:01;2.03;;;1.93;;
4365;SDS011;2196;47.422;9.656;2023-04-03T14:01:47;2.37;;;2.10;;
4365;SDS011;2196;47.422;9.656;2023-04-03T14:04:19;2.80;;;2.60;;
4365;SDS011;2196;47.422;9.656;2023-04-03T14:06:47;5.47;;;4.97;;
4365;SDS011;2196;47.422;9.656;2023-04-03T14:09:15;3.60;;;3.30;;
4365;SDS011;2196;47.422;9.656;2023-04-03T14:11:44;2.83;;;2.50;;
4365;SDS011;2196;47.422;9.656;2023-04-03T14:14:14;3.30;;;3.00;;
4365;SDS011;2196;47.422;9.656;2023-04-03T14:16:44;2.70;;;2.37;;
4365;SDS011;2196;47.422;9.656;2023-04-03T14:19:17;2.30;;;2.20;;
4365;SDS011;2196;47.422;9.656;2023-04-03T14:21:47;2.93;;;2.67;;
4365;SDS011;2196;47.422;9.656;2023-04-03T14:24:16;3.00;;;2.80;;
4365;SDS011;2196;47.422;9.656;2023-04-03T14:26:45;3.90;;;3.60;;
4365;SDS011;2196;47.422;9.656;2023-04-03T14:29:13;4.00;;;3.70;;
4365;SDS011;2196;47.422;9.656;2023-04-03T14:31:40;3.57;;;3.37;;
4365;SDS011;2196;47.422;9.656;2023-04-03T14:34:10;2.40;;;2.20;;
4365;SDS011;2196;47.422;9.656;2023-04-03T14:36:37;2.80;;;2.60;;
4365;SDS011;2196;47.422;9.656;2023-04-03T14:39:06;4.63;;;3.47;;
4365;SDS011;2196;47.422;9.656;2023-04-03T14:41:33;3.27;;;3.10;;
4365;SDS011;2196;47.422;9.656;2023-04-03T14:44:02;2.43;;;2.30;;
4365;SDS011;2196;47.422;9.656;2023-04-03T14:46:30;2.23;;;2.03;;
4365;SDS011;2196;47.422;9.656;2023-04-03T14:48:59;5.57;;;2.00;;
4365;SDS011;2196;47.422;9.656;2023-04-03T14:51:26;2.37;;;2.17;;
4365;SDS011;2196;47.422;9.656;2023-04-03T14:53:53;2.97;;;2.13;;
4365;SDS011;2196;47.422;9.656;2023-04-03T14:56:21;1.87;;;1.77;;
4365;SDS011;2196;47.422;9.656;2023-04-03T14:58:52;2.27;;;2.17;;
4365;SDS011;2196;47.422;9.656;2023-04-03T15:01:23;2.27;;;2.07;;
4365;SDS011;2196;47.422;9.656;2023-04-03T15:03:51;3.07;;;2.90;;
4365;SDS011;2196;47.422;9.656;2023-04-03T15:06:18;4.60;;;1.90;;
4365;SDS011;2196;47.422;9.656;2023-04-03T15:08:46;3.83;;;3.57;;
4365;SDS011;2196;47.422;9.656;2023-04-03T15:11:14;3.03;;;2.73;;
4365;SDS011;2196;47.422;9.656;2023-04-03T15:13:41;2.67;;;2.47;;
4365;SDS011;2196;47.422;9.656;2023-04-03T15:16:12;3.00;;;2.80;;
4365;SDS011;2196;47.422;9.656;2023-04-03T15:18:44;1.83;;;1.70;;
4365;SDS011;2196;47.422;9.656;2023-04-03T15:21:12;2.37;;;2.27;;
4365;SDS011;2196;47.422;9.656;2023-04-03T15:23:40;1.90;;;1.80;;
4365;SDS011;2196;47.422;9.656;2023-04-03T15:26:07;2.77;;;2.33;;
4365;SDS011;2196;47.422;9.656;2023-04-03T15:28:35;2.83;;;2.30;;
4365;SDS011;2196;47.422;9.656;2023-04-03T15:31:04;1.83;;;1.77;;
4365;SDS011;2196;47.422;9.656;2023-04-03T15:33:32;3.03;;;2.10;;
4365;SDS011;2196;47.422;9.656;2023-04-03T15:36:00;2.47;;;2.37;;
4365;SDS011;2196;47.422;9.656;2023-04-03T15:38:27;2.50;;;2.40;;
4365;SDS011;2196;47.422;9.656;2023-04-03T15:40:55;2.37;;;2.17;;
4365;SDS011;2196;47.422;9.656;2023-04-03T15:43:22;2.57;;;2.37;;
4365;SDS011;2196;47.422;9.656;2023-04-03T15:45:49;2.07;;;1.87;;
4365;SDS011;2196;47.422;9.656;2023-04-03T15:48:17;2.80;;;2.30;;
4365;SDS011;2196;47.422;9.656;2023-04-03T15:50:44;1.97;;;1.87;;
4365;SDS011;2196;47.422;9.656;2023-04-03T15:53:12;1.87;;;1.80;;
4365;SDS011;2196;47.422;9.656;2023-04-03T15:55:40;2.17;;;2.07;;
4365;SDS011;2196;47.422;9.656;2023-04-03T15:58:07;3.63;;;2.20;;
4365;SDS011;2196;47.422;9.656;2023-04-03T16:00:34;4.53;;;4.13;;
4365;SDS011;2196;47.422;9.656;2023-04-03T16:03:04;2.90;;;2.63;;
4365;SDS011;2196;47.422;9.656;2023-04-03T16:05:34;2.00;;;2.00;;
4365;SDS011;2196;47.422;9.656;2023-04-03T16:08:03;3.50;;;3.20;;
4365;SDS011;2196;47.422;9.656;2023-04-03T16:10:34;4.07;;;2.23;;
4365;SDS011;2196;47.422;9.656;2023-04-03T16:13:01;2.57;;;2.00;;
4365;SDS011;2196;47.422;9.656;2023-04-03T16:15:28;2.53;;;1.97;;
4365;SDS011;2196;47.422;9.656;2023-04-03T16:17:57;2.10;;;2.00;;
4365;SDS011;2196;47.422;9.656;2023-04-03T16:20:24;1.80;;;1.80;;
4365;SDS011;2196;47.422;9.656;2023-04-03T16:22:52;1.37;;;1.37;;
4365;SDS011;2196;47.422;9.656;2023-04-03T16:25:19;3.90;;;1.93;;
4365;SDS011;2196;47.422;9.656;2023-04-03T16:27:48;2.20;;;1.90;;
4365;SDS011;2196;47.422;9.656;2023-04-03T16:30:15;1.70;;;1.60;;
4365;SDS011;2196;47.422;9.656;2023-04-03T16:32:42;1.83;;;1.80;;
4365;SDS011;2196;47.422;9.656;2023-04-03T16:35:09;1.50;;;1.50;;
4365;SDS011;2196;47.422;9.656;2023-04-03T16:37:37;2.83;;;2.07;;
4365;SDS011;2196;47.422;9.656;2023-04-03T16:40:08;1.53;;;1.43;;
4365;SDS011;2196;47.422;9.656;2023-04-03T16:42:37;2.53;;;2.43;;
4365;SDS011;2196;47.422;9.656;2023-04-03T16:45:09;1.87;;;1.83;;
4365;SDS011;2196;47.422;9.656;2023-04-03T16:47:36;1.13;;;1.13;;
4365;SDS011;2196;47.422;9.656;2023-04-03T16:50:03;3.17;;;2.23;;
4365;SDS011;2196;47.422;9.656;2023-04-03T16:52:31;1.60;;;1.50;;
4365;SDS011;2196;47.422;9.656;2023-04-03T16:54:58;2.50;;;2.30;;
4365;SDS011;2196;47.422;9.656;2023-04-03T16:57:25;2.00;;;1.90;;
4365;SDS011;2196;47.422;9.656;2023-04-03T16:59:52;2.60;;;2.50;;
4365;SDS011;2196;47.422;9.656;2023-04-03T17:02:22;4.40;;;1.80;;
4365;SDS011;2196;47.422;9.656;2023-04-03T17:04:50;2.63;;;2.10;;
4365;SDS011;2196;47.422;9.656;2023-04-03T17:07:17;3.17;;;2.40;;
4365;SDS011;2196;47.422;9.656;2023-04-03T17:09:45;6.27;;;3.47;;
4365;SDS011;2196;47.422;9.656;2023-04-03T17:12:12;2.77;;;2.53;;
4365;SDS011;2196;47.422;9.656;2023-04-03T17:14:39;1.87;;;1.80;;
4365;SDS011;2196;47.422;9.656;2023-04-03T17:17:06;3.20;;;2.90;;
4365;SDS011;2196;47.422;9.656;2023-04-03T17:19:35;2.73;;;2.53;;
4365;SDS011;2196;47.422;9.656;2023-04-03T17:22:03;3.60;;;3.20;;
4365;SDS011;2196;47.422;9.656;2023-04-03T17:24:30;4.53;;;4.13;;
4365;SDS011;2196;47.422;9.656;2023-04-03T17:26:58;2.70;;;2.53;;
4365;SDS011;2196;47.422;9.656;2023-04-03T17:29:25;3.67;;;3.47;;
4365;SDS011;2196;47.422;9.656;2023-04-03T17:31:52;4.40;;;2.30;;
4365;SDS011;2196;47.422;9.656;2023-04-03T17:34:19;2.20;;;2.10;;
4365;SDS011;2196;47.422;9.656;2023-04-03T17:36:48;4.60;;;2.07;;
4365;SDS011;2196;47.422;9.656;2023-04-03T17:39:15;3.20;;;3.00;;
4365;SDS011;2196;47.422;9.656;2023-04-03T17:41:42;6.60;;;3.00;;
4365;SDS011;2196;47.422;9.656;2023-04-03T17:44:09;3.53;;;2.80;;
4365;SDS011;2196;47.422;9.656;2023-04-03T17:46:37;3.67;;;2.70;;
4365;SDS011;2196;47.422;9.656;2023-04-03T17:49:04;2.50;;;2.40;;
4365;SDS011;2196;47.422;9.656;2023-04-03T17:51:31;2.03;;;1.63;;
4365;SDS011;2196;47.422;9.656;2023-04-03T17:54:00;3.27;;;2.00;;
4365;SDS011;2196;47.422;9.656;2023-04-03T17:56:27;5.27;;;3.13;;
4365;SDS011;2196;47.422;9.656;2023-04-03T17:58:54;2.83;;;2.13;;
4365;SDS011;2196;47.422;9.656;2023-04-03T18:01:23;4.63;;;3.23;;
4365;SDS011;2196;47.422;9.656;2023-04-03T18:03:52;3.63;;;2.50;;
4365;SDS011;2196;47.422;9.656;2023-04-03T18:06:21;2.50;;;1.80;;
4365;SDS011;2196;47.422;9.656;2023-04-03T18:08:52;2.63;;;2.43;;
4365;SDS011;2196;47.422;9.656;2023-04-03T18:11:24;4.20;;;3.50;;
4365;SDS011;2196;47.422;9.656;2023-04-03T18:13:53;2.70;;;2.50;;
4365;SDS011;2196;47.422;9.656;2023-04-03T18:16:22;3.23;;;3.00;;
4365;SDS011;2196;47.422;9.656;2023-04-03T18:18:49;3.63;;;3.27;;
4365;SDS011;2196;47.422;9.656;2023-04-03T18:21:16;1.97;;;1.87;;
4365;SDS011;2196;47.422;9.656;2023-04-03T18:23:45;2.37;;;2.27;;
4365;SDS011;2196;47.422;9.656;2023-04-03T18:26:15;3.20;;;2.03;;
4365;SDS011;2196;47.422;9.656;2023-04-03T18:28:45;2.83;;;2.13;;
4365;SDS011;2196;47.422;9.656;2023-04-03T18:31:16;3.53;;;2.20;;
4365;SDS011;2196;47.422;9.656;2023-04-03T18:33:45;3.47;;;2.27;;
4365;SDS011;2196;47.422;9.656;2023-04-03T18:36:12;2.13;;;2.03;;
4365;SDS011;2196;47.422;9.656;2023-04-03T18:38:39;3.23;;;2.93;;
4365;SDS011;2196;47.422;9.656;2023-04-03T18:41:06;2.97;;;2.63;;
4365;SDS011;2196;47.422;9.656;2023-04-03T18:43:34;2.93;;;2.60;;
4365;SDS011;2196;47.422;9.656;2023-04-03T18:46:03;2.00;;;1.90;;
4365;SDS011;2196;47.422;9.656;2023-04-03T18:48:31;3.87;;;2.47;;
4365;SDS011;2196;47.422;9.656;2023-04-03T18:50:59;2.63;;;2.47;;
4365;SDS011;2196;47.422;9.656;2023-04-03T18:53:26;5.03;;;3.33;;
4365;SDS011;2196;47.422;9.656;2023-04-03T18:55:53;2.60;;;2.40;;
4365;SDS011;2196;47.422;9.656;2023-04-03T18:58:20;4.07;;;3.23;;
4365;SDS011;2196;47.422;9.656;2023-04-03T19:00:47;2.53;;;2.17;;
4365;SDS011;2196;47.422;9.656;2023-04-03T19:03:16;5.10;;;2.70;;
4365;SDS011;2196;47.422;9.656;2023-04-03T19:05:43;2.67;;;2.57;;
4365;SDS011;2196;47.422;9.656;2023-04-03T19:08:10;2.47;;;2.33;;
4365;SDS011;2196;47.422;9.656;2023-04-03T19:10:37;2.57;;;2.33;;
4365;SDS011;2196;47.422;9.656;2023-04-03T19:13:04;2.37;;;2.27;;
4365;SDS011;2196;47.422;9.656;2023-04-03T19:15:31;3.83;;;3.20;;
4365;SDS011;2196;47.422;9.656;2023-04-03T19:17:58;2.30;;;2.10;;
4365;SDS011;2196;47.422;9.656;2023-04-03T19:20:27;3.40;;;3.13;;
4365;SDS011;2196;47.422;9.656;2023-04-03T19:22:54;4.93;;;2.10;;
4365;SDS011;2196;47.422;9.656;2023-04-03T19:25:21;2.67;;;2.47;;
4365;SDS011;2196;47.422;9.656;2023-04-03T19:27:48;2.20;;;2.10;;
4365;SDS011;2196;47.422;9.656;2023-04-03T19:30:15;2.23;;;1.93;;
4365;SDS011;2196;47.422;9.656;2023-04-03T19:32:42;5.33;;;2.77;;
4365;SDS011;2196;47.422;9.656;2023-04-03T19:35:09;1.67;;;1.57;;
4365;SDS011;2196;47.422;9.656;2023-04-03T19:37:38;9.77;;;8.77;;
4365;SDS011;2196;47.422;9.656;2023-04-03T19:40:08;6.57;;;3.20;;
4365;SDS011;2196;47.422;9.656;2023-04-03T19:42:35;3.47;;;3.23;;
4365;SDS011;2196;47.422;9.656;2023-04-03T19:45:07;3.03;;;1.67;;
4365;SDS011;2196;47.422;9.656;2023-04-03T19:47:35;2.43;;;2.23;;
4365;SDS011;2196;47.422;9.656;2023-04-03T19:50:03;2.63;;;1.93;;
4365;SDS011;2196;47.422;9.656;2023-04-03T19:52:31;2.27;;;2.07;;
4365;SDS011;2196;47.422;9.656;2023-04-03T19:54:59;2.87;;;2.00;;
4365;SDS011;2196;47.422;9.656;2023-04-03T19:57:26;3.00;;;2.80;;
4365;SDS011;2196;47.422;9.656;2023-04-03T19:59:53;3.47;;;2.43;;
4365;SDS011;2196;47.422;9.656;2023-04-03T20:02:20;1.77;;;1.67;;
4365;SDS011;2196;47.422;9.656;2023-04-03T20:04:47;2.60;;;2.40;;
4365;SDS011;2196;47.422;9.656;2023-04-03T20:07:15;5.67;;;5.17;;
4365;SDS011;2196;47.422;9.656;2023-04-03T20:09:42;4.33;;;2.87;;
4365;SDS011;2196;47.422;9.656;2023-04-03T20:12:10;2.90;;;2.60;;
4365;SDS011;2196;47.422;9.656;2023-04-03T20:14:37;2.57;;;2.47;;
4365;SDS011;2196;47.422;9.656;2023-04-03T20:17:05;3.50;;;1.50;;
4365;SDS011;2196;47.422;9.656;2023-04-03T20:19:32;8.53;;;5.53;;
4365;SDS011;2196;47.422;9.656;2023-04-03T20:21:59;2.53;;;2.33;;
4365;SDS011;2196;47.422;9.656;2023-04-03T20:24:26;2.13;;;1.57;;
4365;SDS011;2196;47.422;9.656;2023-04-03T20:26:53;3.23;;;1.63;;
4365;SDS011;2196;47.422;9.656;2023-04-03T20:29:23;3.13;;;1.60;;
4365;SDS011;2196;47.422;9.656;2023-04-03T20:31:50;2.43;;;2.27;;
4365;SDS011;2196;47.422;9.656;2023-04-03T20:34:19;1.53;;;1.43;;
4365;SDS011;2196;47.422;9.656;2023-04-03T20:36:46;2.27;;;1.43;;
4365;SDS011;2196;47.422;9.656;2023-04-03T20:39:13;3.17;;;1.67;;
4365;SDS011;2196;47.422;9.656;2023-04-03T20:41:40;1.53;;;1.13;;
4365;SDS011;2196;47.422;9.656;2023-04-03T20:44:07;2.67;;;1.50;;
4365;SDS011;2196;47.422;9.656;2023-04-03T20:46:36;1.80;;;1.50;;
4365;SDS011;2196;47.422;9.656;2023-04-03T20:49:03;1.13;;;1.10;;
4365;SDS011;2196;47.422;9.656;2023-04-03T20:51:30;3.07;;;2.63;;
4365;SDS011;2196;47.422;9.656;2023-04-03T20:53:57;1.13;;;1.13;;
4365;SDS011;2196;47.422;9.656;2023-04-03T20:56:24;1.37;;;1.00;;
4365;SDS011;2196;47.422;9.656;2023-04-03T20:58:56;1.47;;;1.07;;
4365;SDS011;2196;47.422;9.656;2023-04-03T21:01:25;1.40;;;1.10;;
4365;SDS011;2196;47.422;9.656;2023-04-03T21:03:55;3.23;;;1.70;;
4365;SDS011;2196;47.422;9.656;2023-04-03T21:20:54;2.07;;;1.97;;
4365;SDS011;2196;47.422;9.656;2023-04-03T21:23:21;2.30;;;2.10;;
4365;SDS011;2196;47.422;9.656;2023-04-03T21:25:49;2.23;;;1.57;;
4365;SDS011;2196;47.422;9.656;2023-04-03T21:28:16;1.43;;;1.30;;
4365;SDS011;2196;47.422;9.656;2023-04-03T21:30:43;1.37;;;1.20;;
4365;SDS011;2196;47.422;9.656;2023-04-03T21:33:10;1.50;;;1.40;;
4365;SDS011;2196;47.422;9.656;2023-04-03T21:35:38;1.53;;;1.30;;
4365;SDS011;2196;47.422;9.656;2023-04-03T21:38:06;1.37;;;1.27;;
4365;SDS011;2196;47.422;9.656;2023-04-03T21:40:33;1.53;;;1.37;;
4365;SDS011;2196;47.422;9.656;2023-04-03T21:43:00;2.17;;;2.07;;
4365;SDS011;2196;47.422;9.656;2023-04-03T21:45:29;3.07;;;1.93;;
4365;SDS011;2196;47.422;9.656;2023-04-03T21:47:56;1.70;;;1.60;;
4365;SDS011;2196;47.422;9.656;2023-04-03T21:50:23;1.30;;;1.20;;
4365;SDS011;2196;47.422;9.656;2023-04-03T21:52:53;1.97;;;1.73;;
4365;SDS011;2196;47.422;9.656;2023-04-03T21:55:20;1.73;;;1.63;;
4365;SDS011;2196;47.422;9.656;2023-04-03T21:57:49;1.93;;;1.50;;
4365;SDS011;2196;47.422;9.656;2023-04-03T22:00:18;1.70;;;1.60;;
4365;SDS011;2196;47.422;9.656;2023-04-03T22:02:46;2.83;;;2.43;;
4365;SDS011;2196;47.422;9.656;2023-04-03T22:05:14;2.47;;;1.77;;
4365;SDS011;2196;47.422;9.656;2023-04-03T22:07:42;5.13;;;1.50;;
4365;SDS011;2196;47.422;9.656;2023-04-03T22:10:13;4.33;;;1.70;;
4365;SDS011;2196;47.422;9.656;2023-04-03T22:12:41;1.33;;;1.23;;
4365;SDS011;2196;47.422;9.656;2023-04-03T22:15:08;1.47;;;1.20;;
4365;SDS011;2196;47.422;9.656;2023-04-03T22:17:35;1.83;;;1.40;;
4365;SDS011;2196;47.422;9.656;2023-04-03T22:20:06;1.57;;;1.40;;
4365;SDS011;2196;47.422;9.656;2023-04-03T22:22:34;1.77;;;1.23;;
4365;SDS011;2196;47.422;9.656;2023-04-03T22:25:01;2.27;;;1.87;;
4365;SDS011;2196;47.422;9.656;2023-04-03T22:27:31;2.97;;;2.57;;
4365;SDS011;2196;47.422;9.656;2023-04-03T22:29:59;3.37;;;1.47;;
4365;SDS011;2196;47.422;9.656;2023-04-03T22:32:26;1.10;;;1.10;;
4365;SDS011;2196;47.422;9.656;2023-04-03T22:34:52;3.00;;;2.70;;
4365;SDS011;2196;47.422;9.656;2023-04-03T22:37:19;2.80;;;1.87;;
4365;SDS011;2196;47.422;9.656;2023-04-03T22:39:46;1.37;;;1.10;;
4365;SDS011;2196;47.422;9.656;2023-04-03T22:42:13;2.40;;;2.20;;
4365;SDS011;2196;47.422;9.656;2023-04-03T22:44:42;2.33;;;1.40;;
4365;SDS011;2196;47.422;9.656;2023-04-03T22:47:09;1.47;;;1.13;;
4365;SDS011;2196;47.422;9.656;2023-04-03T22:49:36;1.60;;;1.50;;
4365;SDS011;2196;47.422;9.656;2023-04-03T22:52:03;2.30;;;1.47;;
4365;SDS011;2196;47.422;9.656;2023-04-03T22:54:30;2.47;;;1.13;;
4365;SDS011;2196;47.422;9.656;2023-04-03T22:56:57;1.77;;;1.73;;
4365;SDS011;2196;47.422;9.656;2023-04-03T22:59:24;1.40;;;1.30;;
4365;SDS011;2196;47.422;9.656;2023-04-03T23:01:53;1.90;;;1.67;;
4365;SDS011;2196;47.422;9.656;2023-04-03T23:04:20;2.67;;;1.30;;
4365;SDS011;2196;47.422;9.656;2023-04-03T23:06:46;1.40;;;1.40;;
4365;SDS011;2196;47.422;9.656;2023-04-03T23:09:13;1.20;;;1.00;;
4365;SDS011;2196;47.422;9.656;2023-04-03T23:11:41;1.30;;;1.20;;
4365;SDS011;2196;47.422;9.656;2023-04-03T23:14:08;2.90;;;1.27;;
4365;SDS011;2196;47.422;9.656;2023-04-03T23:16:35;4.23;;;1.40;;
4365;SDS011;2196;47.422;9.656;2023-04-03T23:19:03;4.73;;;1.20;;
4365;SDS011;2196;47.422;9.656;2023-04-03T23:21:31;5.50;;;1.77;;
4365;SDS011;2196;47.422;9.656;2023-04-03T23:23:58;1.53;;;1.40;;
4365;SDS011;2196;47.422;9.656;2023-04-03T23:26:25;2.20;;;1.50;;
4365;SDS011;2196;47.422;9.656;2023-04-03T23:28:52;0.83;;;0.83;;
4365;SDS011;2196;47.422;9.656;2023-04-03T23:31:19;4.20;;;1.77;;
4365;SDS011;2196;47.422;9.656;2023-04-03T23:33:46;3.83;;;1.13;;
4365;SDS011;2196;47.422;9.656;2023-04-03T23:36:15;2.03;;;1.30;;
4365;SDS011;2196;47.422;9.656;2023-04-03T23:38:42;1.60;;;1.50;;
4365;SDS011;2196;47.422;9.656;2023-04-03T23:41:09;4.70;;;1.20;;
4365;SDS011;2196;47.422;9.656;2023-04-03T23:43:36;1.30;;;1.20;;
4365;SDS011;2196;47.422;9.656;2023-04-03T23:46:05;2.00;;;1.60;;
4365;SDS011;2196;47.422;9.656;2023-04-03T23:48:32;1.37;;;1.27;;
4365;SDS011;2196;47.422;9.656;2023-04-03T23:50:59;2.30;;;1.67;;
4365;SDS011;2196;47.422;9.656;2023-04-03T23:53:27;2.47;;;1.43;;
4365;SDS011;2196;47.422;9.656;2023-04-03T23:55:54;4.77;;;3.80;;
4365;SDS011;2196;47.422;9.656;2023-04-03T23:58:22;8.70;;;5.83;;
